Time;durP1;ratioP1;P1;durP2;ratioP2;P2;SDS_P1;SDS_P2;PMS_P1;PMS_P2;Temp;Humidity;BMP_temperature;BMP_pressure;BME280_temperature;BME280_humidity;BME280_pressure;Samples;Min_cycle;Max_cycle;Signal;HPM_P1;HPM_P2
2023/05/21 00:01:15;;;;;;;7.90;3.67;;;;;;;;;;4994015;28;20441;-76
2023/05/21 00:03:44;;;;;;;12.15;3.45;;;;;;;;;;4998611;28;20065;-75
2023/05/21 00:06:12;;;;;;;12.05;3.55;;;;;;;;;;4989187;28;20042;-76
2023/05/21 00:08:38;;;;;;;6.07;3.10;;;;;;;;;;4990570;28;20030;-75
2023/05/21 00:11:04;;;;;;;8.43;2.78;;;;;;;;;;4994188;28;20178;-76
2023/05/21 00:13:29;;;;;;;4.90;2.65;;;;;;;;;;4994111;28;20117;-75
2023/05/21 00:15:54;;;;;;;7.88;3.17;;;;;;;;;;4996303;28;20034;-75
2023/05/21 00:18:21;;;;;;;5.40;3.17;;;;;;;;;;4991859;28;20725;-76
2023/05/21 00:20:46;;;;;;;9.43;3.47;;;;;;;;;;4992275;28;20260;-76
2023/05/21 00:23:12;;;;;;;12.75;3.10;;;;;;;;;;4988394;28;20786;-78
2023/05/21 00:25:37;;;;;;;4.55;2.92;;;;;;;;;;4995967;28;20034;-76
2023/05/21 00:28:03;;;;;;;7.07;2.80;;;;;;;;;;4997485;28;20038;-75
2023/05/21 00:30:28;;;;;;;6.95;2.53;;;;;;;;;;4994733;28;20033;-75
2023/05/21 00:32:53;;;;;;;5.30;2.13;;;;;;;;;;4987966;28;20125;-75
2023/05/21 00:35:19;;;;;;;5.95;2.72;;;;;;;;;;4998543;28;20037;-76
2023/05/21 00:37:46;;;;;;;7.35;3.30;;;;;;;;;;4987926;28;20039;-76
2023/05/21 00:40:12;;;;;;;4.55;2.90;;;;;;;;;;4997266;28;20057;-75
2023/05/21 00:42:38;;;;;;;6.35;3.10;;;;;;;;;;4991188;28;20039;-75
2023/05/21 00:45:05;;;;;;;6.70;3.83;;;;;;;;;;4995583;28;20025;-75
2023/05/21 00:47:30;;;;;;;11.52;4.32;;;;;;;;;;4995149;28;20120;-76
2023/05/21 00:49:55;;;;;;;11.82;4.32;;;;;;;;;;4985632;28;20494;-75
2023/05/21 00:52:21;;;;;;;9.43;4.22;;;;;;;;;;4986447;28;20446;-75
2023/05/21 00:54:50;;;;;;;6.60;3.80;;;;;;;;;;4991646;28;20104;-73
2023/05/21 00:57:19;;;;;;;4.53;2.85;;;;;;;;;;5001747;28;20379;-74
2023/05/21 00:59:46;;;;;;;7.70;2.80;;;;;;;;;;4990229;28;20026;-77
2023/05/21 01:02:13;;;;;;;7.07;2.83;;;;;;;;;;4991360;28;20064;-77
2023/05/21 01:04:38;;;;;;;4.72;2.17;;;;;;;;;;4988628;28;20057;-77
2023/05/21 01:07:05;;;;;;;7.68;3.10;;;;;;;;;;4989871;28;20042;-77
2023/05/21 01:09:30;;;;;;;3.83;1.65;;;;;;;;;;4996700;28;20041;-76
2023/05/21 01:11:56;;;;;;;7.05;1.70;;;;;;;;;;4998892;28;20398;-74
2023/05/21 01:14:23;;;;;;;6.68;1.85;;;;;;;;;;4992443;28;20038;-77
2023/05/21 01:16:49;;;;;;;6.65;2.63;;;;;;;;;;5007227;28;20066;-76
2023/05/21 01:19:16;;;;;;;3.38;1.98;;;;;;;;;;4992022;28;20058;-76
2023/05/21 01:21:45;;;;;;;4.45;2.13;;;;;;;;;;4991412;28;20042;-75
2023/05/21 01:24:11;;;;;;;3.72;1.60;;;;;;;;;;4987487;28;20034;-74
2023/05/21 01:26:37;;;;;;;9.07;1.70;;;;;;;;;;4991467;28;20034;-74
2023/05/21 01:29:11;;;;;;;14.30;1.83;;;;;;;;;;4993412;28;20441;-76
2023/05/21 01:31:44;;;;;;;3.90;1.60;;;;;;;;;;4989311;28;20033;-75
2023/05/21 01:34:10;;;;;;;5.88;1.73;;;;;;;;;;4984663;28;20113;-73
2023/05/21 01:36:41;;;;;;;5.47;1.73;;;;;;;;;;4988301;28;20112;-76
2023/05/21 01:39:15;;;;;;;5.10;1.70;;;;;;;;;;4991208;28;20124;-74
2023/05/21 01:41:43;;;;;;;3.58;1.70;;;;;;;;;;4986601;28;20051;-76
2023/05/21 01:44:09;;;;;;;10.07;1.75;;;;;;;;;;4996135;28;20819;-75
2023/05/21 01:46:35;;;;;;;4.63;1.92;;;;;;;;;;4992358;28;20029;-76
2023/05/21 01:49:01;;;;;;;5.55;1.88;;;;;;;;;;4982870;28;20042;-75
2023/05/21 01:51:27;;;;;;;2.63;1.48;;;;;;;;;;4993749;28;20038;-76
2023/05/21 01:53:52;;;;;;;7.40;2.03;;;;;;;;;;4997653;28;20057;-73
2023/05/21 01:56:18;;;;;;;7.50;1.92;;;;;;;;;;4989624;28;20048;-75
2023/05/21 01:58:43;;;;;;;3.28;1.73;;;;;;;;;;4988716;28;20390;-76
2023/05/21 02:01:09;;;;;;;3.00;1.52;;;;;;;;;;4989518;28;20481;-76
2023/05/21 02:03:34;;;;;;;6.18;2.15;;;;;;;;;;4988306;28;20038;-75
2023/05/21 02:05:59;;;;;;;3.03;1.70;;;;;;;;;;4992115;28;20526;-74
2023/05/21 02:08:26;;;;;;;5.82;1.90;;;;;;;;;;4995347;28;20116;-76
2023/05/21 02:10:51;;;;;;;4.38;1.92;;;;;;;;;;4988780;28;20089;-77
2023/05/21 02:13:19;;;;;;;3.83;1.25;;;;;;;;;;4986939;28;20430;-77
2023/05/21 02:15:45;;;;;;;6.32;1.55;;;;;;;;;;4990092;28;20034;-76
2023/05/21 02:18:15;;;;;;;5.13;1.70;;;;;;;;;;4994640;28;20121;-76
2023/05/21 02:20:40;;;;;;;7.43;1.95;;;;;;;;;;4996007;28;20077;-75
2023/05/21 02:23:06;;;;;;;5.32;1.83;;;;;;;;;;4993439;28;20073;-77
2023/05/21 02:25:31;;;;;;;4.55;2.03;;;;;;;;;;4988598;28;20512;-77
2023/05/21 02:27:56;;;;;;;2.33;1.42;;;;;;;;;;4999424;28;20061;-76
2023/05/21 02:30:22;;;;;;;9.30;1.77;;;;;;;;;;4988942;28;20030;-77
2023/05/21 02:32:48;;;;;;;3.10;1.63;;;;;;;;;;4992069;28;20122;-75
2023/05/21 02:35:14;;;;;;;5.35;1.85;;;;;;;;;;4989829;28;20474;-78
2023/05/21 02:37:39;;;;;;;8.48;2.13;;;;;;;;;;4988909;28;20049;-78
2023/05/21 02:40:06;;;;;;;3.70;1.80;;;;;;;;;;4986557;28;20109;-76
2023/05/21 02:42:31;;;;;;;6.90;2.00;;;;;;;;;;4988044;28;20411;-76
2023/05/21 02:44:57;;;;;;;7.07;1.23;;;;;;;;;;4998257;28;20030;-76
2023/05/21 02:47:22;;;;;;;5.97;1.77;;;;;;;;;;4994389;28;20041;-76
2023/05/21 02:49:49;;;;;;;6.85;1.70;;;;;;;;;;4987364;28;20026;-76
2023/05/21 02:52:17;;;;;;;3.15;1.30;;;;;;;;;;4988568;28;20026;-77
2023/05/21 02:54:43;;;;;;;2.10;1.55;;;;;;;;;;4987715;28;20486;-75
2023/05/21 02:57:08;;;;;;;4.47;1.63;;;;;;;;;;4986481;28;20046;-76
2023/05/21 02:59:34;;;;;;;8.55;1.77;;;;;;;;;;4990995;28;20049;-76
2023/05/21 03:01:59;;;;;;;4.47;2.00;;;;;;;;;;4985910;28;20127;-76
2023/05/21 03:04:27;;;;;;;3.03;1.58;;;;;;;;;;4990615;28;20379;-76
2023/05/21 03:06:54;;;;;;;5.13;1.55;;;;;;;;;;4990834;28;20023;-76
2023/05/21 03:09:22;;;;;;;3.00;1.80;;;;;;;;;;4988741;28;20454;-76
2023/05/21 03:11:49;;;;;;;2.75;1.40;;;;;;;;;;4990579;28;20034;-76
2023/05/21 03:14:17;;;;;;;6.82;1.80;;;;;;;;;;4990023;28;20026;-76
2023/05/21 03:16:43;;;;;;;3.45;1.58;;;;;;;;;;4994050;28;20043;-76
2023/05/21 03:19:11;;;;;;;8.77;1.88;;;;;;;;;;4998647;28;20030;-75
2023/05/21 03:21:37;;;;;;;6.47;1.30;;;;;;;;;;4996749;28;20135;-77
2023/05/21 03:24:05;;;;;;;6.07;1.88;;;;;;;;;;4996872;28;20428;-77
2023/05/21 03:26:31;;;;;;;7.68;1.45;;;;;;;;;;4995670;28;20038;-77
2023/05/21 03:28:56;;;;;;;2.53;1.25;;;;;;;;;;4996406;28;20433;-75
2023/05/21 03:31:22;;;;;;;2.70;1.67;;;;;;;;;;4995476;28;20080;-78
2023/05/21 03:33:48;;;;;;;2.05;1.27;;;;;;;;;;4992167;28;20039;-76
2023/05/21 03:36:13;;;;;;;6.53;1.73;;;;;;;;;;4999715;28;20390;-75
2023/05/21 03:38:39;;;;;;;6.97;1.60;;;;;;;;;;5000582;28;20074;-76
2023/05/21 03:41:05;;;;;;;5.25;1.48;;;;;;;;;;4994675;28;20041;-76
2023/05/21 03:43:30;;;;;;;2.88;1.45;;;;;;;;;;4988142;28;20046;-75
2023/05/21 03:45:56;;;;;;;5.20;1.85;;;;;;;;;;5000167;28;20048;-75
2023/05/21 03:48:21;;;;;;;3.88;1.50;;;;;;;;;;4997810;28;20042;-76
2023/05/21 03:50:47;;;;;;;7.88;2.20;;;;;;;;;;4995783;28;20034;-77
2023/05/21 03:53:12;;;;;;;2.38;1.48;;;;;;;;;;4990513;28;20158;-75
2023/05/21 03:55:38;;;;;;;8.43;1.45;;;;;;;;;;5003287;28;20037;-76
2023/05/21 03:58:03;;;;;;;6.63;1.42;;;;;;;;;;4994324;28;20059;-75
2023/05/21 04:00:31;;;;;;;4.95;1.73;;;;;;;;;;4993833;28;20053;-75
2023/05/21 04:02:56;;;;;;;3.22;1.45;;;;;;;;;;4994977;28;20611;-74
2023/05/21 04:05:22;;;;;;;5.30;2.00;;;;;;;;;;4998273;28;20061;-75
2023/05/21 04:07:48;;;;;;;2.13;1.50;;;;;;;;;;4990901;28;20046;-75
2023/05/21 04:10:14;;;;;;;2.50;1.63;;;;;;;;;;5000515;28;20057;-77
2023/05/21 04:12:40;;;;;;;2.58;1.70;;;;;;;;;;4992865;28;20045;-77
2023/05/21 04:15:06;;;;;;;3.35;1.98;;;;;;;;;;4996947;28;20057;-77
2023/05/21 04:17:32;;;;;;;5.22;1.83;;;;;;;;;;4996058;28;20049;-76
2023/05/21 04:19:57;;;;;;;8.02;1.85;;;;;;;;;;4996135;28;20049;-75
2023/05/21 04:22:25;;;;;;;3.88;1.55;;;;;;;;;;4999431;28;20100;-76
2023/05/21 04:24:51;;;;;;;8.55;1.65;;;;;;;;;;5000607;28;20042;-76
2023/05/21 04:27:16;;;;;;;8.38;2.05;;;;;;;;;;4992989;28;20044;-76
2023/05/21 04:29:42;;;;;;;12.68;1.90;;;;;;;;;;4993207;28;20498;-76
2023/05/21 04:32:08;;;;;;;4.43;1.92;;;;;;;;;;4999064;28;20048;-76
2023/05/21 04:34:33;;;;;;;3.20;1.55;;;;;;;;;;4993138;28;20034;-76
2023/05/21 04:37:01;;;;;;;3.50;1.67;;;;;;;;;;4998795;28;20034;-76
2023/05/21 04:39:27;;;;;;;3.13;1.63;;;;;;;;;;4993497;28;20094;-76
2023/05/21 04:41:55;;;;;;;2.90;1.27;;;;;;;;;;4996341;28;20493;-77
2023/05/21 04:44:21;;;;;;;3.08;1.77;;;;;;;;;;4997376;28;20391;-75
2023/05/21 04:46:47;;;;;;;3.03;1.45;;;;;;;;;;5002527;28;20045;-77
2023/05/21 04:49:14;;;;;;;3.55;1.80;;;;;;;;;;4995901;28;20578;-77
2023/05/21 04:51:39;;;;;;;3.65;1.42;;;;;;;;;;4994968;28;20047;-76
2023/05/21 04:54:05;;;;;;;7.35;2.40;;;;;;;;;;4994514;28;20060;-77
2023/05/21 04:56:30;;;;;;;2.67;1.67;;;;;;;;;;4999094;28;20026;-77
2023/05/21 04:58:57;;;;;;;7.28;1.83;;;;;;;;;;4998028;28;20442;-77
2023/05/21 05:01:24;;;;;;;2.67;1.63;;;;;;;;;;4995269;28;20034;-78
2023/05/21 05:03:50;;;;;;;5.50;2.17;;;;;;;;;;4991698;28;20030;-78
2023/05/21 05:06:15;;;;;;;5.88;2.13;;;;;;;;;;4993872;28;20039;-77
2023/05/21 05:08:41;;;;;;;5.20;1.98;;;;;;;;;;4995800;28;20096;-77
2023/05/21 05:11:06;;;;;;;3.92;1.80;;;;;;;;;;4995327;28;20030;-77
2023/05/21 05:13:33;;;;;;;4.18;2.10;;;;;;;;;;4994258;28;20045;-76
2023/05/21 05:15:59;;;;;;;4.28;1.98;;;;;;;;;;4993975;28;20050;-76
2023/05/21 05:18:24;;;;;;;3.63;2.05;;;;;;;;;;4992057;28;20100;-77
2023/05/21 05:20:50;;;;;;;5.00;1.83;;;;;;;;;;4998731;28;20057;-77
2023/05/21 05:23:15;;;;;;;4.25;2.00;;;;;;;;;;4991539;28;20494;-77
2023/05/21 05:25:40;;;;;;;4.95;1.92;;;;;;;;;;4992491;28;20145;-77
2023/05/21 05:28:06;;;;;;;4.10;2.05;;;;;;;;;;4991379;28;20029;-78
2023/05/21 05:30:31;;;;;;;5.22;1.70;;;;;;;;;;5001871;28;20500;-79
2023/05/21 05:32:57;;;;;;;6.75;2.10;;;;;;;;;;4992390;28;20080;-77
2023/05/21 05:35:22;;;;;;;10.18;2.35;;;;;;;;;;4995842;28;20034;-75
2023/05/21 05:37:47;;;;;;;3.33;1.80;;;;;;;;;;4995723;28;20711;-77
2023/05/21 05:40:13;;;;;;;4.13;2.17;;;;;;;;;;4991767;28;20026;-77
2023/05/21 05:42:39;;;;;;;5.25;1.80;;;;;;;;;;4994255;28;20483;-78
2023/05/21 05:45:04;;;;;;;4.05;2.10;;;;;;;;;;4996638;28;20044;-77
2023/05/21 05:47:30;;;;;;;7.97;2.30;;;;;;;;;;4998188;28;20034;-78
2023/05/21 05:49:56;;;;;;;3.47;1.90;;;;;;;;;;4995636;28;20034;-79
2023/05/21 05:52:21;;;;;;;6.18;2.20;;;;;;;;;;5001974;28;20038;-78
2023/05/21 05:54:46;;;;;;;4.00;1.98;;;;;;;;;;4995382;28;20065;-78
2023/05/21 05:57:12;;;;;;;4.20;1.88;;;;;;;;;;4997206;28;20367;-79
2023/05/21 05:59:37;;;;;;;5.18;1.83;;;;;;;;;;4991523;28;20034;-78
2023/05/21 06:02:03;;;;;;;3.47;1.70;;;;;;;;;;4999306;28;20124;-78
2023/05/21 06:04:28;;;;;;;3.72;1.80;;;;;;;;;;4992999;28;20121;-78
2023/05/21 06:06:56;;;;;;;4.38;1.85;;;;;;;;;;4993474;28;20434;-78
2023/05/21 06:09:21;;;;;;;3.78;1.48;;;;;;;;;;4988694;28;20042;-76
2023/05/21 06:11:47;;;;;;;2.75;1.33;;;;;;;;;;5000621;28;20107;-78
2023/05/21 06:14:12;;;;;;;3.05;1.42;;;;;;;;;;4988001;28;20039;-78
2023/05/21 06:16:37;;;;;;;2.95;1.50;;;;;;;;;;4990394;28;20410;-78
2023/05/21 06:19:03;;;;;;;3.88;1.60;;;;;;;;;;4990014;28;20068;-78
2023/05/21 06:21:28;;;;;;;3.63;1.40;;;;;;;;;;5000152;28;20398;-77
2023/05/21 06:23:54;;;;;;;2.20;1.40;;;;;;;;;;4991329;28;20065;-77
2023/05/21 06:26:20;;;;;;;3.28;1.33;;;;;;;;;;4998097;28;20038;-77
2023/05/21 06:28:46;;;;;;;3.13;1.40;;;;;;;;;;4993958;28;20042;-78
2023/05/21 06:31:12;;;;;;;3.15;1.52;;;;;;;;;;4994412;28;20058;-77
2023/05/21 06:33:38;;;;;;;3.63;1.40;;;;;;;;;;4994606;28;20042;-75
2023/05/21 06:36:03;;;;;;;3.67;1.40;;;;;;;;;;5000989;28;20041;-76
2023/05/21 06:38:29;;;;;;;3.10;1.52;;;;;;;;;;4992030;28;20379;-77
2023/05/21 06:40:54;;;;;;;5.10;1.30;;;;;;;;;;4994334;28;20044;-77
2023/05/21 06:43:20;;;;;;;3.42;1.50;;;;;;;;;;4994075;28;20038;-77
2023/05/21 06:45:45;;;;;;;3.90;1.50;;;;;;;;;;4997992;28;20393;-78
2023/05/21 06:48:11;;;;;;;4.75;1.50;;;;;;;;;;4991935;28;20038;-77
2023/05/21 06:50:36;;;;;;;3.05;1.45;;;;;;;;;;4991178;28;20037;-77
2023/05/21 06:53:02;;;;;;;3.05;1.50;;;;;;;;;;4994785;28;20052;-78
2023/05/21 06:55:27;;;;;;;5.00;1.40;;;;;;;;;;5001561;28;20113;-77
2023/05/21 06:57:53;;;;;;;5.72;1.88;;;;;;;;;;4994376;28;20523;-78
2023/05/21 07:00:18;;;;;;;3.75;1.40;;;;;;;;;;4997078;28;20046;-78
2023/05/21 07:02:44;;;;;;;4.32;1.48;;;;;;;;;;4997724;28;20043;-78
2023/05/21 07:05:09;;;;;;;4.07;1.58;;;;;;;;;;5003102;28;20110;-76
2023/05/21 07:07:35;;;;;;;3.10;1.55;;;;;;;;;;5004231;28;20037;-78
2023/05/21 07:10:01;;;;;;;4.68;1.60;;;;;;;;;;4991561;28;20034;-77
2023/05/21 07:12:26;;;;;;;4.00;1.77;;;;;;;;;;4999108;28;20397;-78
2023/05/21 07:14:51;;;;;;;6.18;1.70;;;;;;;;;;4996074;28;20027;-78
2023/05/21 07:17:17;;;;;;;5.97;1.70;;;;;;;;;;5000630;28;20041;-76
2023/05/21 07:19:42;;;;;;;7.57;1.63;;;;;;;;;;4996103;28;20113;-76
2023/05/21 07:22:08;;;;;;;5.05;1.63;;;;;;;;;;4998934;28;20034;-76
2023/05/21 07:24:33;;;;;;;4.80;1.67;;;;;;;;;;4994278;28;20035;-75
2023/05/21 07:26:58;;;;;;;6.35;1.70;;;;;;;;;;4995680;28;20041;-76
2023/05/21 07:29:24;;;;;;;4.35;1.67;;;;;;;;;;4999254;28;20539;-76
2023/05/21 07:31:49;;;;;;;6.10;1.58;;;;;;;;;;4994320;28;20038;-76
2023/05/21 07:34:15;;;;;;;3.97;1.63;;;;;;;;;;4989599;28;20057;-74
2023/05/21 07:36:40;;;;;;;3.65;1.65;;;;;;;;;;5002144;28;20466;-74
2023/05/21 07:39:05;;;;;;;6.85;1.73;;;;;;;;;;4998209;28;20035;-74
2023/05/21 07:41:31;;;;;;;7.22;1.95;;;;;;;;;;4998664;28;20037;-75
2023/05/21 07:43:57;;;;;;;4.55;1.80;;;;;;;;;;4999179;28;20040;-75
2023/05/21 07:46:22;;;;;;;6.82;2.35;;;;;;;;;;4998017;28;20089;-75
2023/05/21 07:48:48;;;;;;;6.43;1.77;;;;;;;;;;4992181;28;20525;-75
2023/05/21 07:51:14;;;;;;;3.42;1.50;;;;;;;;;;5001881;28;20034;-75
2023/05/21 07:53:39;;;;;;;6.47;2.05;;;;;;;;;;4996105;28;20046;-75
2023/05/21 07:56:05;;;;;;;4.22;1.65;;;;;;;;;;5000084;28;20410;-75
2023/05/21 07:58:31;;;;;;;4.60;1.90;;;;;;;;;;4999956;28;20072;-75
2023/05/21 08:00:57;;;;;;;4.38;1.55;;;;;;;;;;4998363;28;20045;-75
2023/05/21 08:03:26;;;;;;;3.33;1.38;;;;;;;;;;4995802;28;20046;-75
2023/05/21 08:05:51;;;;;;;4.50;1.83;;;;;;;;;;4991715;28;20140;-74
2023/05/21 08:08:18;;;;;;;3.75;1.60;;;;;;;;;;4996957;28;21710;-75
2023/05/21 08:10:44;;;;;;;3.15;1.58;;;;;;;;;;4993891;28;20089;-75
2023/05/21 08:13:14;;;;;;;6.03;1.60;;;;;;;;;;4996571;28;20069;-76
2023/05/21 08:15:39;;;;;;;4.80;1.77;;;;;;;;;;4989901;28;20665;-75
2023/05/21 08:18:05;;;;;;;4.35;1.80;;;;;;;;;;4993750;28;20045;-75
2023/05/21 08:20:32;;;;;;;4.03;1.70;;;;;;;;;;4993592;28;20031;-75
2023/05/21 08:22:59;;;;;;;8.70;2.38;;;;;;;;;;4999951;28;20045;-75
2023/05/21 08:25:25;;;;;;;4.93;1.90;;;;;;;;;;4995451;28;20038;-75
2023/05/21 08:27:51;;;;;;;4.60;1.88;;;;;;;;;;4996524;28;20041;-76
2023/05/21 08:30:16;;;;;;;5.25;1.65;;;;;;;;;;4992313;28;20034;-75
2023/05/21 08:32:42;;;;;;;4.40;1.50;;;;;;;;;;4997233;28;20128;-75
2023/05/21 08:35:08;;;;;;;5.35;1.80;;;;;;;;;;4996341;28;20042;-75
2023/05/21 08:37:33;;;;;;;6.53;2.00;;;;;;;;;;4994080;28;20113;-75
2023/05/21 08:39:59;;;;;;;6.80;1.63;;;;;;;;;;4995021;28;20141;-75
2023/05/21 08:42:36;;;;;;;8.18;1.70;;;;;;;;;;5000736;28;20080;-75
2023/05/21 08:45:05;;;;;;;3.90;1.80;;;;;;;;;;4993265;28;20065;-74
2023/05/21 08:47:34;;;;;;;4.05;1.75;;;;;;;;;;4991904;28;20069;-74
2023/05/21 08:50:03;;;;;;;4.38;1.60;;;;;;;;;;4996719;28;20034;-73
2023/05/21 08:52:30;;;;;;;3.15;1.30;;;;;;;;;;5002123;28;20034;-74
2023/05/21 08:54:55;;;;;;;5.88;1.48;;;;;;;;;;4996989;28;20068;-74
2023/05/21 08:57:22;;;;;;;6.85;1.90;;;;;;;;;;4983278;28;21483;-74
2023/05/21 08:59:47;;;;;;;2.97;1.42;;;;;;;;;;4990718;28;20042;-74
2023/05/21 09:02:13;;;;;;;5.68;1.70;;;;;;;;;;4990589;28;20034;-75
2023/05/21 09:04:42;;;;;;;5.28;1.35;;;;;;;;;;4999661;28;20038;-75
2023/05/21 09:07:08;;;;;;;4.30;1.50;;;;;;;;;;4990230;28;20716;-73
2023/05/21 09:09:41;;;;;;;4.90;1.80;;;;;;;;;;4993175;28;20481;-75
2023/05/21 09:12:07;;;;;;;3.70;1.70;;;;;;;;;;4985833;28;20044;-76
2023/05/21 09:14:34;;;;;;;5.70;2.20;;;;;;;;;;4991107;28;20030;-73
2023/05/21 09:17:00;;;;;;;5.55;1.83;;;;;;;;;;4991848;28;20042;-76
2023/05/21 09:19:25;;;;;;;4.00;1.52;;;;;;;;;;4988995;28;20040;-76
2023/05/21 09:21:53;;;;;;;4.45;1.70;;;;;;;;;;4995572;28;20078;-76
2023/05/21 09:24:22;;;;;;;5.85;1.88;;;;;;;;;;4995301;28;20104;-75
2023/05/21 09:26:47;;;;;;;4.45;1.80;;;;;;;;;;5008774;28;20045;-74
2023/05/21 09:29:13;;;;;;;3.97;1.63;;;;;;;;;;4997667;28;20474;-76
2023/05/21 09:31:43;;;;;;;5.43;1.85;;;;;;;;;;4997155;28;20034;-75
2023/05/21 09:34:09;;;;;;;7.50;1.73;;;;;;;;;;4988735;28;20121;-75
2023/05/21 09:36:37;;;;;;;5.50;2.03;;;;;;;;;;4999159;28;20137;-76
2023/05/21 09:39:03;;;;;;;5.13;1.63;;;;;;;;;;4989703;28;20083;-75
2023/05/21 09:41:34;;;;;;;6.13;2.22;;;;;;;;;;4994463;28;20544;-75
2023/05/21 09:44:03;;;;;;;12.85;2.15;;;;;;;;;;4994179;28;20085;-74
2023/05/21 09:46:41;;;;;;;6.78;1.77;;;;;;;;;;4992538;28;20034;-75
2023/05/21 09:49:07;;;;;;;11.65;2.03;;;;;;;;;;4996402;28;20048;-75
2023/05/21 09:51:32;;;;;;;5.88;1.85;;;;;;;;;;4994749;28;20087;-74
2023/05/21 09:53:58;;;;;;;4.93;1.95;;;;;;;;;;4992855;28;20030;-75
2023/05/21 09:56:25;;;;;;;3.60;1.67;;;;;;;;;;4993918;28;20038;-74
2023/05/21 09:58:55;;;;;;;5.22;2.03;;;;;;;;;;4991151;28;20054;-74
2023/05/21 10:01:22;;;;;;;4.97;1.60;;;;;;;;;;4992217;28;20058;-75
2023/05/21 10:03:54;;;;;;;5.18;1.95;;;;;;;;;;4994736;28;20414;-74
2023/05/21 10:06:19;;;;;;;;;;;;;;;;;;4991613;28;20081;-74
2023/05/21 10:08:47;;;;;;;4.50;1.80;;;;;;;;;;4993790;28;19913;-74
2023/05/21 10:11:13;;;;;;;6.38;1.80;;;;;;;;;;4999809;28;20045;-75
2023/05/21 10:13:41;;;;;;;4.70;1.80;;;;;;;;;;5000402;28;20038;-75
2023/05/21 10:16:07;;;;;;;3.55;1.45;;;;;;;;;;4992752;28;20034;-75
2023/05/21 10:18:32;;;;;;;3.78;1.67;;;;;;;;;;4996270;28;20042;-75
2023/05/21 10:20:59;;;;;;;6.20;1.70;;;;;;;;;;4992340;28;20115;-74
2023/05/21 10:23:26;;;;;;;3.42;1.63;;;;;;;;;;4993824;28;20029;-75
2023/05/21 10:25:51;;;;;;;4.53;1.70;;;;;;;;;;4985778;28;20494;-75
2023/05/21 10:28:17;;;;;;;9.52;1.70;;;;;;;;;;4993445;28;20142;-75
2023/05/21 10:30:43;;;;;;;7.35;1.80;;;;;;;;;;4991293;28;20044;-75
2023/05/21 10:33:09;;;;;;;3.70;1.88;;;;;;;;;;4988597;28;20042;-75
2023/05/21 10:35:37;;;;;;;3.63;1.50;;;;;;;;;;4992139;28;20486;-75
2023/05/21 10:38:03;;;;;;;4.85;1.65;;;;;;;;;;4991105;28;20400;-75
2023/05/21 10:40:29;;;;;;;3.10;1.63;;;;;;;;;;4990812;28;20406;-75
2023/05/21 10:43:23;;;;;;;4.35;1.50;;;;;;;;;;4991620;28;20030;-74
2023/05/21 10:46:26;;;;;;;2.78;1.52;;;;;;;;;;4991405;28;20070;-76
2023/05/21 10:49:24;;;;;;;6.80;2.05;;;;;;;;;;4986866;28;20109;-74
2023/05/21 10:52:18;;;;;;;3.33;1.50;;;;;;;;;;5012411;28;20046;-75
2023/05/21 10:55:05;;;;;;;3.67;1.70;;;;;;;;;;5001513;28;20133;-76
2023/05/21 10:57:38;;;;;;;3.33;1.70;;;;;;;;;;4989225;28;20051;-76
2023/05/21 11:00:06;;;;;;;6.43;1.73;;;;;;;;;;4991586;28;20044;-77
2023/05/21 11:02:32;;;;;;;3.22;1.40;;;;;;;;;;4991229;28;20038;-78
2023/05/21 11:04:59;;;;;;;4.13;1.35;;;;;;;;;;4992220;28;20406;-77
2023/05/21 11:07:55;;;;;;;7.03;1.70;;;;;;;;;;4986868;28;20422;-77
2023/05/21 11:10:33;;;;;;;4.07;1.50;;;;;;;;;;4992456;28;20049;-78
2023/05/21 11:13:15;;;;;;;3.45;1.60;;;;;;;;;;4992591;28;20084;-74
2023/05/21 11:15:56;;;;;;;3.60;1.52;;;;;;;;;;4988469;28;20517;-74
2023/05/21 11:18:22;;;;;;;4.57;1.85;;;;;;;;;;4991854;28;20057;-76
2023/05/21 11:20:50;;;;;;;5.18;1.70;;;;;;;;;;4992514;28;20121;-77
2023/05/21 11:23:16;;;;;;;3.40;1.33;;;;;;;;;;4991860;28;20034;-78
2023/05/21 11:25:41;;;;;;;2.88;1.20;;;;;;;;;;4991047;28;20039;-77
2023/05/21 11:28:09;;;;;;;4.72;1.75;;;;;;;;;;4989835;28;20097;-76
2023/05/21 11:30:35;;;;;;;9.85;1.85;;;;;;;;;;4993029;28;20070;-76
2023/05/21 11:33:12;;;;;;;3.75;1.52;;;;;;;;;;4992257;28;20100;-76
2023/05/21 11:35:56;;;;;;;5.40;1.70;;;;;;;;;;4992609;28;20045;-76
2023/05/21 11:38:21;;;;;;;6.07;1.83;;;;;;;;;;4985376;28;20089;-76
2023/05/21 11:40:53;;;;;;;4.53;1.65;;;;;;;;;;4994828;28;20042;-77
2023/05/21 11:43:18;;;;;;;3.53;1.77;;;;;;;;;;4994658;28;20398;-77
2023/05/21 11:45:46;;;;;;;7.25;1.90;;;;;;;;;;4994465;28;20030;-77
2023/05/21 11:48:12;;;;;;;4.63;1.70;;;;;;;;;;4986626;28;20491;-77
2023/05/21 11:50:41;;;;;;;6.00;1.98;;;;;;;;;;4996086;28;20154;-75
2023/05/21 11:53:07;;;;;;;8.18;2.10;;;;;;;;;;4994058;28;20033;-76
2023/05/21 11:55:37;;;;;;;7.38;1.77;;;;;;;;;;4996083;28;20038;-76
2023/05/21 11:58:03;;;;;;;6.32;1.30;;;;;;;;;;4995013;28;20177;-76
2023/05/21 12:00:29;;;;;;;5.32;1.63;;;;;;;;;;4994944;28;20065;-77
2023/05/21 12:02:55;;;;;;;6.55;1.67;;;;;;;;;;4994881;28;20069;-77
2023/05/21 12:05:20;;;;;;;3.90;1.58;;;;;;;;;;4995600;28;20387;-77
2023/05/21 12:07:49;;;;;;;2.70;1.50;;;;;;;;;;4996067;28;20034;-76
2023/05/21 12:10:15;;;;;;;3.92;1.50;;;;;;;;;;4983775;28;20165;-77
2023/05/21 12:12:40;;;;;;;6.95;1.60;;;;;;;;;;4995907;28;20088;-77
2023/05/21 12:15:06;;;;;;;5.47;1.60;;;;;;;;;;4996182;28;20041;-76
2023/05/21 12:17:31;;;;;;;4.90;1.85;;;;;;;;;;4995827;28;20549;-77
2023/05/21 12:19:57;;;;;;;3.50;1.42;;;;;;;;;;4995898;28;20112;-77
2023/05/21 12:22:24;;;;;;;3.67;1.50;;;;;;;;;;4994946;28;20026;-76
2023/05/21 12:24:49;;;;;;;4.38;1.67;;;;;;;;;;4995850;28;20106;-76
2023/05/21 12:27:16;;;;;;;5.47;1.40;;;;;;;;;;4994776;28;20026;-77
2023/05/21 12:29:43;;;;;;;2.85;1.20;;;;;;;;;;4994473;28;20121;-77
2023/05/21 12:32:11;;;;;;;4.60;1.83;;;;;;;;;;4995828;28;20118;-77
2023/05/21 12:34:45;;;;;;;5.15;2.22;;;;;;;;;;4994527;28;20081;-77
2023/05/21 12:37:21;;;;;;;4.63;1.15;;;;;;;;;;4991046;28;20050;-77
2023/05/21 12:39:49;;;;;;;3.95;1.60;;;;;;;;;;4994708;28;20034;-77
2023/05/21 12:42:14;;;;;;;2.42;1.40;;;;;;;;;;4983669;28;20093;-77
2023/05/21 12:44:44;;;;;;;4.68;1.63;;;;;;;;;;4994101;28;20038;-77
2023/05/21 12:47:11;;;;;;;3.92;1.30;;;;;;;;;;4995645;28;20034;-76
2023/05/21 12:49:39;;;;;;;3.38;1.40;;;;;;;;;;4993564;28;20046;-77
2023/05/21 12:52:08;;;;;;;3.20;1.42;;;;;;;;;;4994095;28;20038;-77
2023/05/21 12:54:36;;;;;;;6.03;2.00;;;;;;;;;;4994088;28;20035;-77
2023/05/21 12:57:06;;;;;;;4.32;1.63;;;;;;;;;;4994200;28;20431;-76
2023/05/21 12:59:50;;;;;;;6.40;1.50;;;;;;;;;;4993923;28;20030;-77
2023/05/21 13:02:30;;;;;;;4.30;1.40;;;;;;;;;;4993984;28;20134;-77
2023/05/21 13:05:04;;;;;;;3.90;1.65;;;;;;;;;;4992878;28;20081;-77
2023/05/21 13:07:34;;;;;;;3.53;1.92;;;;;;;;;;4993871;28;20042;-76
2023/05/21 13:10:00;;;;;;;3.20;1.48;;;;;;;;;;4993694;28;20554;-76
2023/05/21 13:12:27;;;;;;;3.72;1.80;;;;;;;;;;4993819;28;20034;-76
2023/05/21 13:14:54;;;;;;;4.65;1.83;;;;;;;;;;4994888;28;20038;-76
2023/05/21 13:17:20;;;;;;;3.92;2.03;;;;;;;;;;4993488;28;20466;-76
2023/05/21 13:20:10;;;;;;;4.88;1.92;;;;;;;;;;4993509;28;20104;-77
2023/05/21 13:22:38;;;;;;;5.57;1.92;;;;;;;;;;4988694;28;20044;-77
2023/05/21 13:25:04;;;;;;;4.95;1.80;;;;;;;;;;4993644;28;20042;-76
2023/05/21 13:27:30;;;;;;;7.85;1.52;;;;;;;;;;4993462;28;20478;-77
2023/05/21 13:29:55;;;;;;;8.90;1.95;;;;;;;;;;4993553;28;20054;-76
2023/05/21 13:32:21;;;;;;;6.65;1.88;;;;;;;;;;4994552;28;20101;-77
2023/05/21 13:34:46;;;;;;;7.10;1.75;;;;;;;;;;4994497;28;20522;-76
2023/05/21 13:37:12;;;;;;;3.53;1.65;;;;;;;;;;4994385;28;20047;-77
2023/05/21 13:39:38;;;;;;;5.03;1.75;;;;;;;;;;4994400;28;20066;-76
2023/05/21 13:42:04;;;;;;;4.45;1.77;;;;;;;;;;4993259;28;20034;-77
2023/05/21 13:44:34;;;;;;;5.13;1.70;;;;;;;;;;4994247;28;20042;-76
2023/05/21 13:47:03;;;;;;;2.72;1.23;;;;;;;;;;4993204;28;20050;-76
2023/05/21 13:49:28;;;;;;;3.92;1.50;;;;;;;;;;4992949;28;20043;-77
2023/05/21 13:51:53;;;;;;;3.75;1.75;;;;;;;;;;4993173;28;20038;-77
2023/05/21 13:54:19;;;;;;;3.72;1.55;;;;;;;;;;4994285;28;20049;-76
2023/05/21 13:56:45;;;;;;;3.28;1.60;;;;;;;;;;4993827;28;20497;-76
2023/05/21 13:59:10;;;;;;;3.60;1.45;;;;;;;;;;4993758;28;20054;-77
2023/05/21 14:01:36;;;;;;;4.90;1.65;;;;;;;;;;4991958;28;20042;-77
2023/05/21 14:04:04;;;;;;;3.88;1.60;;;;;;;;;;4994205;28;20031;-76
2023/05/21 14:06:30;;;;;;;5.82;1.60;;;;;;;;;;4993927;28;20062;-77
2023/05/21 14:08:57;;;;;;;5.40;1.60;;;;;;;;;;4993840;28;20479;-76
2023/05/21 14:11:22;;;;;;;4.10;1.70;;;;;;;;;;4992254;28;20470;-77
2023/05/21 14:13:48;;;;;;;4.22;1.60;;;;;;;;;;4994119;28;20038;-77
2023/05/21 14:16:13;;;;;;;5.13;1.60;;;;;;;;;;4993838;28;20387;-76
2023/05/21 14:18:38;;;;;;;3.42;1.52;;;;;;;;;;4993683;28;20035;-76
2023/05/21 14:21:04;;;;;;;7.22;1.52;;;;;;;;;;4993731;28;20092;-77
2023/05/21 14:23:29;;;;;;;3.70;1.50;;;;;;;;;;4993774;28;20054;-77
2023/05/21 14:25:55;;;;;;;4.38;1.77;;;;;;;;;;4993730;28;20034;-76
2023/05/21 14:28:20;;;;;;;2.40;1.40;;;;;;;;;;4993696;28;20049;-77
2023/05/21 14:30:45;;;;;;;3.70;1.50;;;;;;;;;;4993120;28;20069;-76
2023/05/21 14:33:12;;;;;;;4.63;1.60;;;;;;;;;;4993888;28;20034;-76
2023/05/21 14:35:37;;;;;;;4.72;1.67;;;;;;;;;;4993649;28;20041;-76
2023/05/21 14:38:03;;;;;;;5.00;1.48;;;;;;;;;;4993644;28;20038;-76
2023/05/21 14:40:28;;;;;;;4.70;1.52;;;;;;;;;;4993551;28;20109;-77
2023/05/21 14:42:54;;;;;;;3.83;1.40;;;;;;;;;;4993823;28;20602;-76